Terminal Aerodrome Forecast
Issued by NWS

Home | Current Version | Previous Version | Text Only | Print | Product List | Glossary On
Versions: 1 2 3 4 5 6 7 8 9 10 11 12 13 14 15 16 17 18 19
000
FTUS43 KIWX 282324
TAFSBN
TAF
KSBN 282324Z 2900/2924 30008KT P6SM SCT100
     FM291100 24010KT P6SM FEW040
     FM291600 26016G24KT P6SM SCT050
     FM292300 25010KT P6SM SCT050=

USA.gov is the U.S. government's official web portal to all federal, state and local government web resources and services.